sensor_id;sensor_type;location;lat;lon;timestamp;temperature;humidity
77829;DHT22;67019;51.034;3.728;2023-10-09T00:01:11;15.70;99.90
77829;DHT22;67019;51.034;3.728;2023-10-09T00:03:40;15.60;99.90
77829;DHT22;67019;51.034;3.728;2023-10-09T00:06:09;15.60;99.90
77829;DHT22;67019;51.034;3.728;2023-10-09T00:08:42;15.50;99.90
77829;DHT22;67019;51.034;3.728;2023-10-09T00:11:10;15.50;99.90
77829;DHT22;67019;51.034;3.728;2023-10-09T00:13:44;15.60;99.90
77829;DHT22;67019;51.034;3.728;2023-10-09T00:16:26;15.70;99.90
77829;DHT22;67019;51.034;3.728;2023-10-09T00:19:04;15.70;99.90
77829;DHT22;67019;51.034;3.728;2023-10-09T00:22:07;15.80;99.90
77829;DHT22;67019;51.034;3.728;2023-10-09T00:27:52;15.90;99.90
77829;DHT22;67019;51.034;3.728;2023-10-09T00:30:19;15.80;99.90
77829;DHT22;67019;51.034;3.728;2023-10-09T00:32:47;15.70;99.90
77829;DHT22;67019;51.034;3.728;2023-10-09T00:38:52;15.40;99.90
77829;DHT22;67019;51.034;3.728;2023-10-09T00:41:19;15.40;99.90
77829;DHT22;67019;51.034;3.728;2023-10-09T00:43:48;15.40;99.90
77829;DHT22;67019;51.034;3.728;2023-10-09T00:46:22;15.40;99.90
77829;DHT22;67019;51.034;3.728;2023-10-09T00:48:58;15.40;99.90
77829;DHT22;67019;51.034;3.728;2023-10-09T00:51:23;15.40;99.90
77829;DHT22;67019;51.034;3.728;2023-10-09T00:53:55;15.40;99.90
77829;DHT22;67019;51.034;3.728;2023-10-09T00:56:43;15.40;99.90
77829;DHT22;67019;51.034;3.728;2023-10-09T00:59:14;15.40;99.90
77829;DHT22;67019;51.034;3.728;2023-10-09T01:01:41;15.40;99.90
77829;DHT22;67019;51.034;3.728;2023-10-09T01:04:16;15.50;99.90
77829;DHT22;67019;51.034;3.728;2023-10-09T01:06:43;15.50;99.90
77829;DHT22;67019;51.034;3.728;2023-10-09T01:09:11;15.50;99.90
77829;DHT22;67019;51.034;3.728;2023-10-09T01:30:05;15.30;99.90
77829;DHT22;67019;51.034;3.728;2023-10-09T01:32:32;15.30;99.90
77829;DHT22;67019;51.034;3.728;2023-10-09T01:35:03;15.20;99.90
77829;DHT22;67019;51.034;3.728;2023-10-09T01:40:47;15.10;99.90
77829;DHT22;67019;51.034;3.728;2023-10-09T01:46:18;15.10;99.90
77829;DHT22;67019;51.034;3.728;2023-10-09T01:48:46;15.00;99.90
77829;DHT22;67019;51.034;3.728;2023-10-09T01:51:14;15.20;99.90
77829;DHT22;67019;51.034;3.728;2023-10-09T01:53:43;15.10;99.90
77829;DHT22;67019;51.034;3.728;2023-10-09T01:59:12;15.00;99.90
77829;DHT22;67019;51.034;3.728;2023-10-09T02:01:41;14.90;99.90
77829;DHT22;67019;51.034;3.728;2023-10-09T02:57:28;14.70;99.90
77829;DHT22;67019;51.034;3.728;2023-10-09T02:59:57;14.70;99.90
77829;DHT22;67019;51.034;3.728;2023-10-09T03:02:25;14.60;99.90
77829;DHT22;67019;51.034;3.728;2023-10-09T03:14:06;14.50;99.90
77829;DHT22;67019;51.034;3.728;2023-10-09T03:16:32;14.40;99.90
77829;DHT22;67019;51.034;3.728;2023-10-09T03:18:59;14.50;99.90
77829;DHT22;67019;51.034;3.728;2023-10-09T03:21:31;14.40;99.90
77829;DHT22;67019;51.034;3.728;2023-10-09T03:23:57;14.40;99.90
77829;DHT22;67019;51.034;3.728;2023-10-09T03:26:26;14.40;99.90
77829;DHT22;67019;51.034;3.728;2023-10-09T03:32:09;14.40;99.90
77829;DHT22;67019;51.034;3.728;2023-10-09T03:34:39;14.50;99.90
77829;DHT22;67019;51.034;3.728;2023-10-09T03:37:05;14.60;99.90
77829;DHT22;67019;51.034;3.728;2023-10-09T03:39:34;14.60;99.90
77829;DHT22;67019;51.034;3.728;2023-10-09T03:42:02;14.60;99.90
77829;DHT22;67019;51.034;3.728;2023-10-09T03:44:33;14.60;99.90
77829;DHT22;67019;51.034;3.728;2023-10-09T03:47:02;14.50;99.90
77829;DHT22;67019;51.034;3.728;2023-10-09T03:49:32;14.50;99.90
77829;DHT22;67019;51.034;3.728;2023-10-09T03:52:05;14.50;99.90
77829;DHT22;67019;51.034;3.728;2023-10-09T03:57:50;14.60;99.90
77829;DHT22;67019;51.034;3.728;2023-10-09T04:03:20;14.60;99.90
77829;DHT22;67019;51.034;3.728;2023-10-09T04:05:47;14.60;99.90
77829;DHT22;67019;51.034;3.728;2023-10-09T04:11:20;14.60;99.90
77829;DHT22;67019;51.034;3.728;2023-10-09T04:13:50;14.60;99.90
77829;DHT22;67019;51.034;3.728;2023-10-09T04:16:22;14.60;99.90
77829;DHT22;67019;51.034;3.728;2023-10-09T04:19:04;14.60;99.90
77829;DHT22;67019;51.034;3.728;2023-10-09T04:30:56;14.60;99.90
77829;DHT22;67019;51.034;3.728;2023-10-09T04:36:42;14.60;99.90
77829;DHT22;67019;51.034;3.728;2023-10-09T04:39:19;14.60;99.90
77829;DHT22;67019;51.034;3.728;2023-10-09T04:41:57;14.70;99.90
77829;DHT22;67019;51.034;3.728;2023-10-09T05:17:09;14.70;99.90
77829;DHT22;67019;51.034;3.728;2023-10-09T05:19:37;14.70;99.90
77829;DHT22;67019;51.034;3.728;2023-10-09T05:28:19;14.60;99.90
77829;DHT22;67019;51.034;3.728;2023-10-09T05:34:16;14.60;99.90
77829;DHT22;67019;51.034;3.728;2023-10-09T05:36:44;14.60;99.90
77829;DHT22;67019;51.034;3.728;2023-10-09T05:39:13;14.60;99.90
77829;DHT22;67019;51.034;3.728;2023-10-09T05:41:45;14.50;99.90
77829;DHT22;67019;51.034;3.728;2023-10-09T05:44:29;14.50;99.90
77829;DHT22;67019;51.034;3.728;2023-10-09T05:47:20;14.50;99.90
77829;DHT22;67019;51.034;3.728;2023-10-09T05:49:59;14.50;99.90
77829;DHT22;67019;51.034;3.728;2023-10-09T05:52:37;14.40;99.90
77829;DHT22;67019;51.034;3.728;2023-10-09T05:55:06;14.40;99.90
77829;DHT22;67019;51.034;3.728;2023-10-09T05:57:46;14.50;99.90
77829;DHT22;67019;51.034;3.728;2023-10-09T06:00:31;14.40;99.90
77829;DHT22;67019;51.034;3.728;2023-10-09T06:03:16;14.40;99.90
77829;DHT22;67019;51.034;3.728;2023-10-09T06:05:48;14.30;99.90
77829;DHT22;67019;51.034;3.728;2023-10-09T06:08:25;14.40;99.90
77829;DHT22;67019;51.034;3.728;2023-10-09T06:10:53;14.40;99.90
77829;DHT22;67019;51.034;3.728;2023-10-09T06:19:36;14.40;99.90
77829;DHT22;67019;51.034;3.728;2023-10-09T06:22:09;14.40;99.90
77829;DHT22;67019;51.034;3.728;2023-10-09T06:24:56;14.30;99.90
77829;DHT22;67019;51.034;3.728;2023-10-09T06:27:23;14.40;99.90
77829;DHT22;67019;51.034;3.728;2023-10-09T06:29:58;14.30;99.90
77829;DHT22;67019;51.034;3.728;2023-10-09T06:32:41;14.30;99.90
77829;DHT22;67019;51.034;3.728;2023-10-09T06:35:19;14.30;99.90
77829;DHT22;67019;51.034;3.728;2023-10-09T06:37:48;14.30;99.90
77829;DHT22;67019;51.034;3.728;2023-10-09T06:40:19;14.30;99.90
77829;DHT22;67019;51.034;3.728;2023-10-09T06:42:50;14.30;99.90
77829;DHT22;67019;51.034;3.728;2023-10-09T06:45:19;14.30;99.90
77829;DHT22;67019;51.034;3.728;2023-10-09T06:47:47;14.30;99.90
77829;DHT22;67019;51.034;3.728;2023-10-09T06:50:34;14.30;99.90
77829;DHT22;67019;51.034;3.728;2023-10-09T06:53:19;14.30;99.90
77829;DHT22;67019;51.034;3.728;2023-10-09T06:55:46;14.30;99.90
77829;DHT22;67019;51.034;3.728;2023-10-09T06:58:17;14.30;99.90
77829;DHT22;67019;51.034;3.728;2023-10-09T07:00:46;14.30;99.90
77829;DHT22;67019;51.034;3.728;2023-10-09T07:21:58;14.80;99.90
77829;DHT22;67019;51.034;3.728;2023-10-09T07:24:26;14.90;99.90
77829;DHT22;67019;51.034;3.728;2023-10-09T07:26:55;15.00;99.90
77829;DHT22;67019;51.034;3.728;2023-10-09T07:29:22;15.10;99.90
77829;DHT22;67019;51.034;3.728;2023-10-09T07:31:49;15.20;99.90
77829;DHT22;67019;51.034;3.728;2023-10-09T07:34:18;15.20;99.90
77829;DHT22;67019;51.034;3.728;2023-10-09T07:36:58;15.20;99.90
77829;DHT22;67019;51.034;3.728;2023-10-09T07:39:26;15.30;99.90
77829;DHT22;67019;51.034;3.728;2023-10-09T07:42:09;15.30;99.90
77829;DHT22;67019;51.034;3.728;2023-10-09T07:47:52;15.40;99.90
77829;DHT22;67019;51.034;3.728;2023-10-09T07:50:36;15.40;99.90
77829;DHT22;67019;51.034;3.728;2023-10-09T08:05:06;15.70;99.90
77829;DHT22;67019;51.034;3.728;2023-10-09T08:07:35;15.80;99.90
77829;DHT22;67019;51.034;3.728;2023-10-09T08:15:59;15.90;99.90
77829;DHT22;67019;51.034;3.728;2023-10-09T08:21:32;16.10;99.90
77829;DHT22;67019;51.034;3.728;2023-10-09T08:24:07;16.10;99.90
77829;DHT22;67019;51.034;3.728;2023-10-09T08:26:35;16.20;99.90
77829;DHT22;67019;51.034;3.728;2023-10-09T08:59:24;17.00;99.90
77829;DHT22;67019;51.034;3.728;2023-10-09T09:01:53;17.10;99.90
77829;DHT22;67019;51.034;3.728;2023-10-09T09:18:52;17.40;99.90
77829;DHT22;67019;51.034;3.728;2023-10-09T09:21:21;17.50;99.90
77829;DHT22;67019;51.034;3.728;2023-10-09T09:51:18;17.90;99.90
77829;DHT22;67019;51.034;3.728;2023-10-09T10:23:47;18.70;99.90
77829;DHT22;67019;51.034;3.728;2023-10-09T10:26:20;18.70;99.90
77829;DHT22;67019;51.034;3.728;2023-10-09T10:50:00;19.30;99.90
77829;DHT22;67019;51.034;3.728;2023-10-09T10:52:53;19.60;99.90
77829;DHT22;67019;51.034;3.728;2023-10-09T10:58:27;19.30;99.90
77829;DHT22;67019;51.034;3.728;2023-10-09T11:00:55;19.40;99.90
77829;DHT22;67019;51.034;3.728;2023-10-09T11:03:25;19.60;99.90
77829;DHT22;67019;51.034;3.728;2023-10-09T11:06:10;19.70;99.90
77829;DHT22;67019;51.034;3.728;2023-10-09T11:08:44;19.60;99.90
77829;DHT22;67019;51.034;3.728;2023-10-09T11:11:12;19.80;99.90
77829;DHT22;67019;51.034;3.728;2023-10-09T11:13:44;19.70;99.90
77829;DHT22;67019;51.034;3.728;2023-10-09T11:16:24;20.00;99.90
77829;DHT22;67019;51.034;3.728;2023-10-09T11:18:58;20.40;99.90
77829;DHT22;67019;51.034;3.728;2023-10-09T11:21:27;20.30;99.90
77829;DHT22;67019;51.034;3.728;2023-10-09T11:24:01;20.30;99.90
77829;DHT22;67019;51.034;3.728;2023-10-09T11:26:46;20.20;99.90
77829;DHT22;67019;51.034;3.728;2023-10-09T11:29:15;20.30;99.90
77829;DHT22;67019;51.034;3.728;2023-10-09T11:34:31;20.50;99.90
77829;DHT22;67019;51.034;3.728;2023-10-09T11:37:13;20.30;99.90
77829;DHT22;67019;51.034;3.728;2023-10-09T11:39:42;20.60;99.90
77829;DHT22;67019;51.034;3.728;2023-10-09T11:42:22;20.60;99.90
77829;DHT22;67019;51.034;3.728;2023-10-09T11:45:06;20.70;99.90
77829;DHT22;67019;51.034;3.728;2023-10-09T11:47:47;20.70;99.90
77829;DHT22;67019;51.034;3.728;2023-10-09T11:50:46;21.00;99.90
77829;DHT22;67019;51.034;3.728;2023-10-09T11:52:54;21.00;99.90
77829;DHT22;67019;51.034;3.728;2023-10-09T11:55:25;20.70;99.90
77829;DHT22;67019;51.034;3.728;2023-10-09T11:57:51;21.00;99.90
77829;DHT22;67019;51.034;3.728;2023-10-09T12:00:18;21.00;99.90
77829;DHT22;67019;51.034;3.728;2023-10-09T12:02:53;21.00;99.90
77829;DHT22;67019;51.034;3.728;2023-10-09T12:05:20;21.20;99.90
77829;DHT22;67019;51.034;3.728;2023-10-09T12:07:47;21.30;99.90
77829;DHT22;67019;51.034;3.728;2023-10-09T12:10:15;21.20;99.90
77829;DHT22;67019;51.034;3.728;2023-10-09T12:12:44;20.80;99.90
77829;DHT22;67019;51.034;3.728;2023-10-09T12:15:12;21.10;99.90
77829;DHT22;67019;51.034;3.728;2023-10-09T12:17:41;21.70;99.90
77829;DHT22;67019;51.034;3.728;2023-10-09T12:20:09;21.70;99.90
77829;DHT22;67019;51.034;3.728;2023-10-09T12:22:39;21.90;99.90
77829;DHT22;67019;51.034;3.728;2023-10-09T12:25:06;22.00;99.90
77829;DHT22;67019;51.034;3.728;2023-10-09T12:27:35;22.10;99.90
77829;DHT22;67019;51.034;3.728;2023-10-09T12:30:02;22.10;99.90
77829;DHT22;67019;51.034;3.728;2023-10-09T12:32:29;21.60;99.90
77829;DHT22;67019;51.034;3.728;2023-10-09T12:34:56;22.00;99.90
77829;DHT22;67019;51.034;3.728;2023-10-09T12:37:25;22.00;99.90
77829;DHT22;67019;51.034;3.728;2023-10-09T12:39:52;21.40;99.90
77829;DHT22;67019;51.034;3.728;2023-10-09T12:42:20;21.00;99.90
77829;DHT22;67019;51.034;3.728;2023-10-09T12:44:47;21.00;99.90
77829;DHT22;67019;51.034;3.728;2023-10-09T12:47:15;20.80;99.90
77829;DHT22;67019;51.034;3.728;2023-10-09T12:49:43;20.50;99.90
77829;DHT22;67019;51.034;3.728;2023-10-09T12:52:10;20.90;99.90
77829;DHT22;67019;51.034;3.728;2023-10-09T12:54:39;21.00;99.90
77829;DHT22;67019;51.034;3.728;2023-10-09T12:57:07;21.10;99.90
77829;DHT22;67019;51.034;3.728;2023-10-09T12:59:37;21.60;99.90
77829;DHT22;67019;51.034;3.728;2023-10-09T13:02:03;21.30;99.90
77829;DHT22;67019;51.034;3.728;2023-10-09T13:04:31;21.70;99.90
77829;DHT22;67019;51.034;3.728;2023-10-09T13:07:00;21.90;99.90
77829;DHT22;67019;51.034;3.728;2023-10-09T13:09:31;22.10;99.90
77829;DHT22;67019;51.034;3.728;2023-10-09T13:12:02;22.20;99.90
77829;DHT22;67019;51.034;3.728;2023-10-09T13:14:31;22.50;99.90
77829;DHT22;67019;51.034;3.728;2023-10-09T13:16:59;22.70;99.90
77829;DHT22;67019;51.034;3.728;2023-10-09T13:19:28;22.70;99.90
77829;DHT22;67019;51.034;3.728;2023-10-09T13:21:57;22.60;99.90
77829;DHT22;67019;51.034;3.728;2023-10-09T13:24:25;22.50;99.90
77829;DHT22;67019;51.034;3.728;2023-10-09T13:26:54;22.70;99.90
77829;DHT22;67019;51.034;3.728;2023-10-09T13:29:23;22.90;99.90
77829;DHT22;67019;51.034;3.728;2023-10-09T13:31:50;23.30;99.90
77829;DHT22;67019;51.034;3.728;2023-10-09T13:34:18;23.40;99.90
77829;DHT22;67019;51.034;3.728;2023-10-09T13:36:45;23.50;99.90
77829;DHT22;67019;51.034;3.728;2023-10-09T13:39:23;23.20;99.90
77829;DHT22;67019;51.034;3.728;2023-10-09T13:41:52;22.10;99.90
77829;DHT22;67019;51.034;3.728;2023-10-09T13:46:56;21.80;99.90
77829;DHT22;67019;51.034;3.728;2023-10-09T13:49:24;22.10;99.90
77829;DHT22;67019;51.034;3.728;2023-10-09T13:51:53;22.50;99.90
77829;DHT22;67019;51.034;3.728;2023-10-09T13:54:21;22.60;99.90
77829;DHT22;67019;51.034;3.728;2023-10-09T13:56:50;22.60;99.90
77829;DHT22;67019;51.034;3.728;2023-10-09T13:59:19;23.00;99.90
77829;DHT22;67019;51.034;3.728;2023-10-09T14:01:49;23.00;99.90
77829;DHT22;67019;51.034;3.728;2023-10-09T14:04:16;23.20;99.90
77829;DHT22;67019;51.034;3.728;2023-10-09T14:06:45;23.00;99.90
77829;DHT22;67019;51.034;3.728;2023-10-09T14:09:17;22.90;99.90
77829;DHT22;67019;51.034;3.728;2023-10-09T14:12:01;22.90;99.90
77829;DHT22;67019;51.034;3.728;2023-10-09T14:14:41;22.30;99.90
77829;DHT22;67019;51.034;3.728;2023-10-09T14:17:23;21.80;99.90
77829;DHT22;67019;51.034;3.728;2023-10-09T14:19:51;22.00;99.90
77829;DHT22;67019;51.034;3.728;2023-10-09T14:22:22;22.20;99.90
77829;DHT22;67019;51.034;3.728;2023-10-09T14:24:55;22.30;99.90
77829;DHT22;67019;51.034;3.728;2023-10-09T14:27:23;22.60;99.90
77829;DHT22;67019;51.034;3.728;2023-10-09T14:29:52;21.60;99.90
77829;DHT22;67019;51.034;3.728;2023-10-09T14:32:21;21.40;99.90
77829;DHT22;67019;51.034;3.728;2023-10-09T14:34:49;21.60;99.90
77829;DHT22;67019;51.034;3.728;2023-10-09T14:37:17;21.90;99.90
77829;DHT22;67019;51.034;3.728;2023-10-09T14:39:45;22.30;99.90
77829;DHT22;67019;51.034;3.728;2023-10-09T14:42:19;22.40;99.90
77829;DHT22;67019;51.034;3.728;2023-10-09T14:44:48;21.80;99.90
77829;DHT22;67019;51.034;3.728;2023-10-09T14:47:16;21.80;99.90
77829;DHT22;67019;51.034;3.728;2023-10-09T14:49:49;21.80;99.90
77829;DHT22;67019;51.034;3.728;2023-10-09T14:52:17;22.10;99.90
77829;DHT22;67019;51.034;3.728;2023-10-09T14:54:45;22.30;99.90
77829;DHT22;67019;51.034;3.728;2023-10-09T14:57:12;22.10;99.90
77829;DHT22;67019;51.034;3.728;2023-10-09T14:59:39;21.90;99.90
77829;DHT22;67019;51.034;3.728;2023-10-09T15:02:06;21.70;99.90
77829;DHT22;67019;51.034;3.728;2023-10-09T15:04:33;21.20;99.90
77829;DHT22;67019;51.034;3.728;2023-10-09T15:07:01;21.10;99.90
77829;DHT22;67019;51.034;3.728;2023-10-09T15:09:29;21.40;99.90
77829;DHT22;67019;51.034;3.728;2023-10-09T15:11:57;20.80;99.90
77829;DHT22;67019;51.034;3.728;2023-10-09T15:14:24;20.40;99.90
77829;DHT22;67019;51.034;3.728;2023-10-09T15:16:52;20.30;99.90
77829;DHT22;67019;51.034;3.728;2023-10-09T15:19:19;20.30;99.90
77829;DHT22;67019;51.034;3.728;2023-10-09T15:21:48;20.30;99.90
77829;DHT22;67019;51.034;3.728;2023-10-09T15:24:16;20.60;99.90
77829;DHT22;67019;51.034;3.728;2023-10-09T15:26:45;21.30;99.90
77829;DHT22;67019;51.034;3.728;2023-10-09T15:29:16;21.50;99.90
77829;DHT22;67019;51.034;3.728;2023-10-09T15:31:45;21.70;99.90
77829;DHT22;67019;51.034;3.728;2023-10-09T15:34:12;22.70;99.90
77829;DHT22;67019;51.034;3.728;2023-10-09T15:36:39;23.10;99.90
77829;DHT22;67019;51.034;3.728;2023-10-09T15:39:15;22.70;99.90
77829;DHT22;67019;51.034;3.728;2023-10-09T15:41:38;22.60;99.90
77829;DHT22;67019;51.034;3.728;2023-10-09T15:44:06;22.60;99.90
77829;DHT22;67019;51.034;3.728;2023-10-09T15:46:33;22.50;99.90
77829;DHT22;67019;51.034;3.728;2023-10-09T15:49:01;22.00;99.90
77829;DHT22;67019;51.034;3.728;2023-10-09T15:51:28;21.70;99.90
77829;DHT22;67019;51.034;3.728;2023-10-09T15:53:56;21.50;99.90
77829;DHT22;67019;51.034;3.728;2023-10-09T15:56:23;21.10;99.90
77829;DHT22;67019;51.034;3.728;2023-10-09T15:58:50;20.80;99.90
77829;DHT22;67019;51.034;3.728;2023-10-09T16:01:19;20.70;99.90
77829;DHT22;67019;51.034;3.728;2023-10-09T16:03:46;20.70;99.90
77829;DHT22;67019;51.034;3.728;2023-10-09T16:06:15;21.10;99.90
77829;DHT22;67019;51.034;3.728;2023-10-09T16:08:43;21.20;99.90
77829;DHT22;67019;51.034;3.728;2023-10-09T16:11:18;21.60;99.90
77829;DHT22;67019;51.034;3.728;2023-10-09T16:13:47;22.50;99.90
77829;DHT22;67019;51.034;3.728;2023-10-09T16:16:14;23.20;99.90
77829;DHT22;67019;51.034;3.728;2023-10-09T16:18:41;23.40;99.90
77829;DHT22;67019;51.034;3.728;2023-10-09T16:21:09;22.90;99.90
77829;DHT22;67019;51.034;3.728;2023-10-09T16:23:37;22.10;99.90
77829;DHT22;67019;51.034;3.728;2023-10-09T16:26:04;21.80;99.90
77829;DHT22;67019;51.034;3.728;2023-10-09T16:28:33;21.80;99.90
77829;DHT22;67019;51.034;3.728;2023-10-09T16:31:00;21.50;99.90
77829;DHT22;67019;51.034;3.728;2023-10-09T16:33:27;21.20;99.90
77829;DHT22;67019;51.034;3.728;2023-10-09T16:35:55;21.20;99.90
77829;DHT22;67019;51.034;3.728;2023-10-09T16:38:23;21.40;99.90
77829;DHT22;67019;51.034;3.728;2023-10-09T16:40:54;21.10;99.90
77829;DHT22;67019;51.034;3.728;2023-10-09T16:43:22;20.90;99.90
77829;DHT22;67019;51.034;3.728;2023-10-09T16:45:51;20.30;99.90
77829;DHT22;67019;51.034;3.728;2023-10-09T16:48:18;20.10;99.90
77829;DHT22;67019;51.034;3.728;2023-10-09T16:50:44;19.80;99.90
77829;DHT22;67019;51.034;3.728;2023-10-09T16:53:12;19.60;99.90
77829;DHT22;67019;51.034;3.728;2023-10-09T16:55:40;19.50;99.90
77829;DHT22;67019;51.034;3.728;2023-10-09T16:58:11;19.30;99.90
77829;DHT22;67019;51.034;3.728;2023-10-09T17:00:39;19.20;99.90
77829;DHT22;67019;51.034;3.728;2023-10-09T17:03:08;19.20;99.90
77829;DHT22;67019;51.034;3.728;2023-10-09T17:05:34;19.20;99.90
77829;DHT22;67019;51.034;3.728;2023-10-09T17:08:20;19.30;99.90
77829;DHT22;67019;51.034;3.728;2023-10-09T17:10:48;19.30;99.90
77829;DHT22;67019;51.034;3.728;2023-10-09T17:13:17;19.30;99.90
77829;DHT22;67019;51.034;3.728;2023-10-09T17:15:48;19.50;99.90
77829;DHT22;67019;51.034;3.728;2023-10-09T17:18:17;19.60;99.90
77829;DHT22;67019;51.034;3.728;2023-10-09T17:20:45;19.50;99.90
77829;DHT22;67019;51.034;3.728;2023-10-09T17:23:15;20.60;99.90
77829;DHT22;67019;51.034;3.728;2023-10-09T17:25:41;19.40;99.90
77829;DHT22;67019;51.034;3.728;2023-10-09T17:28:11;19.30;99.90
77829;DHT22;67019;51.034;3.728;2023-10-09T17:30:39;19.10;99.90
77829;DHT22;67019;51.034;3.728;2023-10-09T17:33:07;19.20;99.90
77829;DHT22;67019;51.034;3.728;2023-10-09T17:35:34;19.10;99.90
77829;DHT22;67019;51.034;3.728;2023-10-09T17:38:02;19.00;99.90
77829;DHT22;67019;51.034;3.728;2023-10-09T17:40:30;18.70;99.90
77829;DHT22;67019;51.034;3.728;2023-10-09T17:42:57;18.70;99.90
77829;DHT22;67019;51.034;3.728;2023-10-09T17:45:24;18.70;99.90
77829;DHT22;67019;51.034;3.728;2023-10-09T17:47:51;18.70;99.90
77829;DHT22;67019;51.034;3.728;2023-10-09T17:50:18;18.70;99.90
77829;DHT22;67019;51.034;3.728;2023-10-09T17:52:48;18.80;99.90
77829;DHT22;67019;51.034;3.728;2023-10-09T17:55:15;18.70;99.90
77829;DHT22;67019;51.034;3.728;2023-10-09T17:57:43;18.60;99.90
77829;DHT22;67019;51.034;3.728;2023-10-09T18:00:10;18.50;99.90
77829;DHT22;67019;51.034;3.728;2023-10-09T18:02:39;18.20;99.90
77829;DHT22;67019;51.034;3.728;2023-10-09T18:05:06;18.00;99.90
77829;DHT22;67019;51.034;3.728;2023-10-09T18:07:34;17.90;99.90
77829;DHT22;67019;51.034;3.728;2023-10-09T18:10:03;17.80;99.90
77829;DHT22;67019;51.034;3.728;2023-10-09T18:12:32;17.80;99.90
77829;DHT22;67019;51.034;3.728;2023-10-09T18:14:59;18.00;99.90
77829;DHT22;67019;51.034;3.728;2023-10-09T18:17:32;17.80;99.90
77829;DHT22;67019;51.034;3.728;2023-10-09T18:19:58;17.90;99.90
77829;DHT22;67019;51.034;3.728;2023-10-09T18:22:24;18.00;99.90
77829;DHT22;67019;51.034;3.728;2023-10-09T18:24:53;18.10;99.90
77829;DHT22;67019;51.034;3.728;2023-10-09T18:27:21;18.40;99.90
77829;DHT22;67019;51.034;3.728;2023-10-09T18:29:48;18.50;99.90
77829;DHT22;67019;51.034;3.728;2023-10-09T18:32:15;18.40;99.90
77829;DHT22;67019;51.034;3.728;2023-10-09T18:34:42;18.20;99.90
77829;DHT22;67019;51.034;3.728;2023-10-09T18:37:09;18.10;99.90
77829;DHT22;67019;51.034;3.728;2023-10-09T18:39:37;17.80;99.90
77829;DHT22;67019;51.034;3.728;2023-10-09T18:42:06;17.80;99.90
77829;DHT22;67019;51.034;3.728;2023-10-09T18:44:36;17.60;99.90
77829;DHT22;67019;51.034;3.728;2023-10-09T18:47:04;17.60;99.90
77829;DHT22;67019;51.034;3.728;2023-10-09T18:49:31;17.60;99.90
77829;DHT22;67019;51.034;3.728;2023-10-09T18:51:58;17.40;99.90
77829;DHT22;67019;51.034;3.728;2023-10-09T18:54:25;17.20;99.90
77829;DHT22;67019;51.034;3.728;2023-10-09T18:56:52;17.30;99.90
77829;DHT22;67019;51.034;3.728;2023-10-09T18:59:19;17.30;99.90
77829;DHT22;67019;51.034;3.728;2023-10-09T19:01:48;17.40;99.90
77829;DHT22;67019;51.034;3.728;2023-10-09T19:04:15;17.30;99.90
77829;DHT22;67019;51.034;3.728;2023-10-09T19:06:43;17.50;99.90
77829;DHT22;67019;51.034;3.728;2023-10-09T19:09:11;17.30;99.90
77829;DHT22;67019;51.034;3.728;2023-10-09T19:11:40;17.50;99.90
77829;DHT22;67019;51.034;3.728;2023-10-09T19:14:09;17.80;99.90
77829;DHT22;67019;51.034;3.728;2023-10-09T19:16:37;17.70;99.90
77829;DHT22;67019;51.034;3.728;2023-10-09T19:19:04;17.10;99.90
77829;DHT22;67019;51.034;3.728;2023-10-09T19:21:32;17.20;99.90
77829;DHT22;67019;51.034;3.728;2023-10-09T19:24:00;17.20;99.90
77829;DHT22;67019;51.034;3.728;2023-10-09T19:26:29;17.10;99.90
77829;DHT22;67019;51.034;3.728;2023-10-09T19:28:57;17.00;99.90
77829;DHT22;67019;51.034;3.728;2023-10-09T19:31:25;17.30;99.90
77829;DHT22;67019;51.034;3.728;2023-10-09T19:33:52;17.50;99.90
77829;DHT22;67019;51.034;3.728;2023-10-09T19:36:19;17.50;99.90
77829;DHT22;67019;51.034;3.728;2023-10-09T19:38:47;17.10;99.90
77829;DHT22;67019;51.034;3.728;2023-10-09T19:41:17;17.10;99.90
77829;DHT22;67019;51.034;3.728;2023-10-09T19:43:45;17.30;99.90
77829;DHT22;67019;51.034;3.728;2023-10-09T19:46:15;17.10;99.90
77829;DHT22;67019;51.034;3.728;2023-10-09T19:48:42;16.80;99.90
77829;DHT22;67019;51.034;3.728;2023-10-09T19:51:17;16.50;99.90
77829;DHT22;67019;51.034;3.728;2023-10-09T19:53:43;16.30;99.90
77829;DHT22;67019;51.034;3.728;2023-10-09T19:56:10;16.50;99.90
77829;DHT22;67019;51.034;3.728;2023-10-09T19:58:37;16.60;99.90
77829;DHT22;67019;51.034;3.728;2023-10-09T20:01:06;16.60;99.90
77829;DHT22;67019;51.034;3.728;2023-10-09T20:03:33;16.60;99.90
77829;DHT22;67019;51.034;3.728;2023-10-09T20:06:01;16.70;99.90
77829;DHT22;67019;51.034;3.728;2023-10-09T20:08:29;16.70;99.90
77829;DHT22;67019;51.034;3.728;2023-10-09T20:11:06;16.60;99.90
77829;DHT22;67019;51.034;3.728;2023-10-09T20:13:33;16.60;99.90
77829;DHT22;67019;51.034;3.728;2023-10-09T20:16:00;16.50;99.90
77829;DHT22;67019;51.034;3.728;2023-10-09T20:18:28;16.40;99.90
77829;DHT22;67019;51.034;3.728;2023-10-09T20:20:58;16.40;99.90
77829;DHT22;67019;51.034;3.728;2023-10-09T20:23:25;16.10;99.90
77829;DHT22;67019;51.034;3.728;2023-10-09T20:26:03;16.30;99.90
77829;DHT22;67019;51.034;3.728;2023-10-09T20:28:32;16.40;99.90
77829;DHT22;67019;51.034;3.728;2023-10-09T20:31:01;16.40;99.90
77829;DHT22;67019;51.034;3.728;2023-10-09T20:33:28;16.40;99.90
77829;DHT22;67019;51.034;3.728;2023-10-09T20:36:02;16.40;99.90
77829;DHT22;67019;51.034;3.728;2023-10-09T20:38:34;16.60;99.90
77829;DHT22;67019;51.034;3.728;2023-10-09T20:41:03;16.60;99.90
77829;DHT22;67019;51.034;3.728;2023-10-09T20:43:29;16.60;99.90
77829;DHT22;67019;51.034;3.728;2023-10-09T20:45:56;16.20;99.90
77829;DHT22;67019;51.034;3.728;2023-10-09T20:48:27;16.00;99.90
77829;DHT22;67019;51.034;3.728;2023-10-09T20:50:53;15.90;99.90
77829;DHT22;67019;51.034;3.728;2023-10-09T20:53:20;16.10;99.90
77829;DHT22;67019;51.034;3.728;2023-10-09T20:55:49;16.20;99.90
77829;DHT22;67019;51.034;3.728;2023-10-09T20:58:18;16.40;99.90
77829;DHT22;67019;51.034;3.728;2023-10-09T21:00:46;16.50;99.90
77829;DHT22;67019;51.034;3.728;2023-10-09T21:03:14;16.30;99.90
77829;DHT22;67019;51.034;3.728;2023-10-09T21:05:43;16.10;99.90
77829;DHT22;67019;51.034;3.728;2023-10-09T21:08:10;16.00;99.90
77829;DHT22;67019;51.034;3.728;2023-10-09T21:10:36;15.90;99.90
77829;DHT22;67019;51.034;3.728;2023-10-09T21:13:12;15.60;99.90
77829;DHT22;67019;51.034;3.728;2023-10-09T21:15:37;15.50;99.90
77829;DHT22;67019;51.034;3.728;2023-10-09T21:18:07;15.50;99.90
77829;DHT22;67019;51.034;3.728;2023-10-09T21:20:34;15.40;99.90
77829;DHT22;67019;51.034;3.728;2023-10-09T21:23:03;15.60;99.90
77829;DHT22;67019;51.034;3.728;2023-10-09T21:25:31;15.80;99.90
77829;DHT22;67019;51.034;3.728;2023-10-09T21:27:58;15.90;99.90
77829;DHT22;67019;51.034;3.728;2023-10-09T21:30:26;15.60;99.90
77829;DHT22;67019;51.034;3.728;2023-10-09T21:32:53;15.70;99.90